sensor_id;sensor_type;location;lat;lon;timestamp;P1;durP1;ratioP1;P2;durP2;ratioP2
20042;SDS011;10182;52.896;6.496;2022-12-07T00:02:27;4.47;;;2.20;;
20042;SDS011;10182;52.896;6.496;2022-12-07T00:07:29;7.43;;;2.17;;
20042;SDS011;10182;52.896;6.496;2022-12-07T00:12:32;9.80;;;2.57;;
20042;SDS011;10182;52.896;6.496;2022-12-07T00:17:34;8.10;;;1.60;;
20042;SDS011;10182;52.896;6.496;2022-12-07T00:22:35;10.87;;;2.70;;
20042;SDS011;10182;52.896;6.496;2022-12-07T00:27:38;12.20;;;3.47;;
20042;SDS011;10182;52.896;6.496;2022-12-07T00:32:40;16.20;;;2.70;;
20042;SDS011;10182;52.896;6.496;2022-12-07T00:37:42;8.50;;;2.07;;
20042;SDS011;10182;52.896;6.496;2022-12-07T00:42:45;8.37;;;2.10;;
20042;SDS011;10182;52.896;6.496;2022-12-07T00:47:47;6.13;;;2.07;;
20042;SDS011;10182;52.896;6.496;2022-12-07T00:52:48;7.10;;;2.40;;
20042;SDS011;10182;52.896;6.496;2022-12-07T00:57:51;6.63;;;2.10;;
20042;SDS011;10182;52.896;6.496;2022-12-07T01:02:53;9.47;;;2.50;;
20042;SDS011;10182;52.896;6.496;2022-12-07T01:07:55;8.27;;;2.50;;
20042;SDS011;10182;52.896;6.496;2022-12-07T01:12:58;12.00;;;2.50;;
20042;SDS011;10182;52.896;6.496;2022-12-07T01:18:00;4.83;;;2.23;;
20042;SDS011;10182;52.896;6.496;2022-12-07T01:23:01;7.77;;;1.73;;
20042;SDS011;10182;52.896;6.496;2022-12-07T01:28:05;9.77;;;2.20;;
20042;SDS011;10182;52.896;6.496;2022-12-07T01:33:06;12.73;;;2.07;;
20042;SDS011;10182;52.896;6.496;2022-12-07T01:38:08;4.90;;;1.50;;
20042;SDS011;10182;52.896;6.496;2022-12-07T01:43:14;10.23;;;1.80;;
20042;SDS011;10182;52.896;6.496;2022-12-07T01:48:20;7.73;;;1.80;;
20042;SDS011;10182;52.896;6.496;2022-12-07T01:53:25;7.07;;;1.30;;
20042;SDS011;10182;52.896;6.496;2022-12-07T01:58:32;7.27;;;1.53;;
20042;SDS011;10182;52.896;6.496;2022-12-07T02:03:36;4.17;;;1.00;;
20042;SDS011;10182;52.896;6.496;2022-12-07T02:08:40;13.27;;;2.80;;
20042;SDS011;10182;52.896;6.496;2022-12-07T02:13:44;8.43;;;1.43;;
20042;SDS011;10182;52.896;6.496;2022-12-07T02:18:54;5.67;;;1.23;;
20042;SDS011;10182;52.896;6.496;2022-12-07T02:29:32;8.47;;;5.70;;
20042;SDS011;10182;52.896;6.496;2022-12-07T02:34:41;9.83;;;6.53;;
20042;SDS011;10182;52.896;6.496;2022-12-07T02:39:50;13.20;;;5.83;;
20042;SDS011;10182;52.896;6.496;2022-12-07T02:44:58;18.33;;;6.60;;
20042;SDS011;10182;52.896;6.496;2022-12-07T02:50:02;13.63;;;5.43;;
20042;SDS011;10182;52.896;6.496;2022-12-07T02:55:05;12.07;;;4.63;;
20042;SDS011;10182;52.896;6.496;2022-12-07T03:00:11;7.43;;;4.00;;
20042;SDS011;10182;52.896;6.496;2022-12-07T03:05:21;7.63;;;2.77;;
20042;SDS011;10182;52.896;6.496;2022-12-07T03:10:48;7.17;;;2.43;;
20042;SDS011;10182;52.896;6.496;2022-12-07T03:15:57;7.00;;;2.30;;
20042;SDS011;10182;52.896;6.496;2022-12-07T03:21:05;9.67;;;2.33;;
20042;SDS011;10182;52.896;6.496;2022-12-07T03:26:10;6.03;;;1.80;;
20042;SDS011;10182;52.896;6.496;2022-12-07T03:31:17;6.07;;;1.73;;
20042;SDS011;10182;52.896;6.496;2022-12-07T03:36:24;8.07;;;1.60;;
20042;SDS011;10182;52.896;6.496;2022-12-07T03:41:31;3.53;;;1.20;;
20042;SDS011;10182;52.896;6.496;2022-12-07T03:46:40;4.90;;;1.40;;
20042;SDS011;10182;52.896;6.496;2022-12-07T03:51:45;7.73;;;1.70;;
20042;SDS011;10182;52.896;6.496;2022-12-07T03:56:53;8.53;;;1.43;;
20042;SDS011;10182;52.896;6.496;2022-12-07T04:01:58;5.57;;;1.60;;
20042;SDS011;10182;52.896;6.496;2022-12-07T04:07:04;6.40;;;1.40;;
20042;SDS011;10182;52.896;6.496;2022-12-07T04:12:05;8.00;;;1.63;;
20042;SDS011;10182;52.896;6.496;2022-12-07T04:17:09;9.07;;;2.70;;
20042;SDS011;10182;52.896;6.496;2022-12-07T04:22:11;6.00;;;1.43;;
20042;SDS011;10182;52.896;6.496;2022-12-07T04:27:12;5.23;;;1.70;;
20042;SDS011;10182;52.896;6.496;2022-12-07T04:32:15;10.07;;;2.10;;
20042;SDS011;10182;52.896;6.496;2022-12-07T04:37:17;5.87;;;1.40;;
20042;SDS011;10182;52.896;6.496;2022-12-07T04:42:19;7.07;;;1.73;;
20042;SDS011;10182;52.896;6.496;2022-12-07T04:47:22;7.07;;;1.67;;
20042;SDS011;10182;52.896;6.496;2022-12-07T04:52:23;9.33;;;1.50;;
20042;SDS011;10182;52.896;6.496;2022-12-07T04:57:25;3.93;;;1.20;;
20042;SDS011;10182;52.896;6.496;2022-12-07T05:02:28;8.10;;;1.70;;
20042;SDS011;10182;52.896;6.496;2022-12-07T05:07:30;4.20;;;1.03;;
20042;SDS011;10182;52.896;6.496;2022-12-07T05:12:31;7.53;;;1.43;;
20042;SDS011;10182;52.896;6.496;2022-12-07T05:17:34;6.70;;;1.13;;
20042;SDS011;10182;52.896;6.496;2022-12-07T05:22:36;13.13;;;2.40;;
20042;SDS011;10182;52.896;6.496;2022-12-07T05:27:37;9.30;;;1.60;;
20042;SDS011;10182;52.896;6.496;2022-12-07T05:32:41;12.50;;;2.13;;
20042;SDS011;10182;52.896;6.496;2022-12-07T05:37:42;6.17;;;1.37;;
20042;SDS011;10182;52.896;6.496;2022-12-07T05:42:44;8.20;;;1.47;;
20042;SDS011;10182;52.896;6.496;2022-12-07T05:47:47;3.90;;;1.73;;
20042;SDS011;10182;52.896;6.496;2022-12-07T05:52:49;5.30;;;1.67;;
20042;SDS011;10182;52.896;6.496;2022-12-07T05:57:51;6.40;;;1.40;;
20042;SDS011;10182;52.896;6.496;2022-12-07T06:03:07;4.77;;;1.23;;
20042;SDS011;10182;52.896;6.496;2022-12-07T06:08:09;5.93;;;1.77;;
20042;SDS011;10182;52.896;6.496;2022-12-07T06:13:11;5.80;;;1.83;;
20042;SDS011;10182;52.896;6.496;2022-12-07T06:18:14;5.90;;;1.63;;
20042;SDS011;10182;52.896;6.496;2022-12-07T06:23:16;7.13;;;1.47;;
20042;SDS011;10182;52.896;6.496;2022-12-07T06:28:17;6.53;;;1.90;;
20042;SDS011;10182;52.896;6.496;2022-12-07T06:33:20;6.83;;;1.23;;
20042;SDS011;10182;52.896;6.496;2022-12-07T06:38:22;6.93;;;1.50;;
20042;SDS011;10182;52.896;6.496;2022-12-07T06:43:24;11.03;;;1.83;;
20042;SDS011;10182;52.896;6.496;2022-12-07T06:48:27;5.53;;;1.50;;
20042;SDS011;10182;52.896;6.496;2022-12-07T06:53:28;9.17;;;2.00;;
20042;SDS011;10182;52.896;6.496;2022-12-07T06:58:30;6.77;;;1.67;;
20042;SDS011;10182;52.896;6.496;2022-12-07T07:03:33;8.20;;;1.63;;
20042;SDS011;10182;52.896;6.496;2022-12-07T07:08:35;7.70;;;1.60;;
20042;SDS011;10182;52.896;6.496;2022-12-07T07:13:37;7.57;;;1.50;;
20042;SDS011;10182;52.896;6.496;2022-12-07T07:18:40;7.07;;;1.57;;
20042;SDS011;10182;52.896;6.496;2022-12-07T07:23:42;7.57;;;1.63;;
20042;SDS011;10182;52.896;6.496;2022-12-07T07:28:43;8.67;;;1.97;;
20042;SDS011;10182;52.896;6.496;2022-12-07T07:33:47;5.50;;;1.70;;
20042;SDS011;10182;52.896;6.496;2022-12-07T07:38:48;3.17;;;1.60;;
20042;SDS011;10182;52.896;6.496;2022-12-07T07:43:50;8.83;;;2.10;;
20042;SDS011;10182;52.896;6.496;2022-12-07T07:48:53;16.10;;;2.63;;
20042;SDS011;10182;52.896;6.496;2022-12-07T07:53:55;12.87;;;3.50;;
20042;SDS011;10182;52.896;6.496;2022-12-07T07:58:56;5.13;;;1.50;;
20042;SDS011;10182;52.896;6.496;2022-12-07T08:03:59;10.50;;;2.33;;
20042;SDS011;10182;52.896;6.496;2022-12-07T08:09:01;9.43;;;1.93;;
20042;SDS011;10182;52.896;6.496;2022-12-07T08:14:05;7.07;;;2.30;;
20042;SDS011;10182;52.896;6.496;2022-12-07T08:19:08;9.43;;;2.70;;
20042;SDS011;10182;52.896;6.496;2022-12-07T08:24:10;14.90;;;2.70;;
20042;SDS011;10182;52.896;6.496;2022-12-07T08:29:12;9.43;;;2.87;;
20042;SDS011;10182;52.896;6.496;2022-12-07T08:34:15;8.77;;;1.93;;
20042;SDS011;10182;52.896;6.496;2022-12-07T08:39:16;8.37;;;1.90;;
20042;SDS011;10182;52.896;6.496;2022-12-07T08:44:18;4.87;;;1.80;;
20042;SDS011;10182;52.896;6.496;2022-12-07T08:49:22;7.53;;;1.90;;
20042;SDS011;10182;52.896;6.496;2022-12-07T08:54:27;9.63;;;2.20;;
20042;SDS011;10182;52.896;6.496;2022-12-07T08:59:30;4.63;;;1.70;;
20042;SDS011;10182;52.896;6.496;2022-12-07T09:04:33;6.03;;;2.10;;
20042;SDS011;10182;52.896;6.496;2022-12-07T09:09:35;8.27;;;2.27;;
20042;SDS011;10182;52.896;6.496;2022-12-07T09:14:37;5.50;;;1.70;;
20042;SDS011;10182;52.896;6.496;2022-12-07T09:19:40;9.00;;;2.73;;
20042;SDS011;10182;52.896;6.496;2022-12-07T09:24:42;14.10;;;2.00;;
20042;SDS011;10182;52.896;6.496;2022-12-07T09:29:45;10.63;;;2.27;;
20042;SDS011;10182;52.896;6.496;2022-12-07T09:34:48;7.33;;;2.00;;
20042;SDS011;10182;52.896;6.496;2022-12-07T09:39:50;7.07;;;2.00;;
20042;SDS011;10182;52.896;6.496;2022-12-07T09:44:52;9.93;;;1.80;;
20042;SDS011;10182;52.896;6.496;2022-12-07T09:49:55;4.53;;;1.90;;
20042;SDS011;10182;52.896;6.496;2022-12-07T09:55:07;5.30;;;2.40;;
20042;SDS011;10182;52.896;6.496;2022-12-07T10:00:12;13.47;;;2.47;;
20042;SDS011;10182;52.896;6.496;2022-12-07T10:05:18;5.77;;;2.10;;
20042;SDS011;10182;52.896;6.496;2022-12-07T10:10:26;8.63;;;2.93;;
20042;SDS011;10182;52.896;6.496;2022-12-07T10:15:42;7.17;;;2.73;;
20042;SDS011;10182;52.896;6.496;2022-12-07T10:20:59;5.33;;;2.07;;
20042;SDS011;10182;52.896;6.496;2022-12-07T10:26:17;5.13;;;1.20;;
20042;SDS011;10182;52.896;6.496;2022-12-07T10:31:22;3.40;;;1.37;;
20042;SDS011;10182;52.896;6.496;2022-12-07T10:36:26;5.53;;;2.00;;
20042;SDS011;10182;52.896;6.496;2022-12-07T10:41:35;5.53;;;2.00;;
20042;SDS011;10182;52.896;6.496;2022-12-07T10:46:50;7.63;;;1.83;;
20042;SDS011;10182;52.896;6.496;2022-12-07T10:52:05;7.43;;;2.00;;
20042;SDS011;10182;52.896;6.496;2022-12-07T10:57:20;6.07;;;1.43;;
20042;SDS011;10182;52.896;6.496;2022-12-07T11:02:50;9.67;;;1.80;;
20042;SDS011;10182;52.896;6.496;2022-12-07T11:08:05;6.70;;;2.03;;
20042;SDS011;10182;52.896;6.496;2022-12-07T11:13:28;5.67;;;1.77;;
20042;SDS011;10182;52.896;6.496;2022-12-07T11:18:40;13.27;;;2.37;;
20042;SDS011;10182;52.896;6.496;2022-12-07T11:23:55;6.43;;;2.30;;
20042;SDS011;10182;52.896;6.496;2022-12-07T11:29:07;7.83;;;2.33;;
20042;SDS011;10182;52.896;6.496;2022-12-07T11:34:20;5.63;;;1.60;;
20042;SDS011;10182;52.896;6.496;2022-12-07T11:39:34;6.43;;;1.80;;
20042;SDS011;10182;52.896;6.496;2022-12-07T11:44:43;7.30;;;1.77;;
20042;SDS011;10182;52.896;6.496;2022-12-07T11:49:53;6.03;;;1.70;;
20042;SDS011;10182;52.896;6.496;2022-12-07T11:54:57;8.53;;;2.20;;
20042;SDS011;10182;52.896;6.496;2022-12-07T12:00:03;10.17;;;1.80;;
20042;SDS011;10182;52.896;6.496;2022-12-07T12:05:13;4.17;;;1.80;;
20042;SDS011;10182;52.896;6.496;2022-12-07T12:10:20;7.33;;;2.07;;
20042;SDS011;10182;52.896;6.496;2022-12-07T12:15:33;7.50;;;1.40;;
20042;SDS011;10182;52.896;6.496;2022-12-07T12:20:44;7.33;;;2.07;;
20042;SDS011;10182;52.896;6.496;2022-12-07T12:25:50;6.73;;;1.83;;
20042;SDS011;10182;52.896;6.496;2022-12-07T12:31:05;9.53;;;2.43;;
20042;SDS011;10182;52.896;6.496;2022-12-07T12:36:23;5.10;;;1.87;;
20042;SDS011;10182;52.896;6.496;2022-12-07T12:53:03;7.30;;;1.67;;
20042;SDS011;10182;52.896;6.496;2022-12-07T12:58:30;5.97;;;1.30;;
20042;SDS011;10182;52.896;6.496;2022-12-07T13:03:33;1.93;;;0.80;;
20042;SDS011;10182;52.896;6.496;2022-12-07T13:08:37;3.47;;;0.73;;
20042;SDS011;10182;52.896;6.496;2022-12-07T13:13:44;3.30;;;0.90;;
20042;SDS011;10182;52.896;6.496;2022-12-07T13:18:45;5.40;;;0.60;;
20042;SDS011;10182;52.896;6.496;2022-12-07T13:23:52;1.90;;;1.00;;
20042;SDS011;10182;52.896;6.496;2022-12-07T13:29:06;1.47;;;0.50;;
20042;SDS011;10182;52.896;6.496;2022-12-07T13:34:28;1.53;;;0.60;;
20042;SDS011;10182;52.896;6.496;2022-12-07T13:39:32;2.90;;;1.00;;
20042;SDS011;10182;52.896;6.496;2022-12-07T13:44:39;3.93;;;1.17;;
20042;SDS011;10182;52.896;6.496;2022-12-07T13:49:46;2.07;;;0.70;;
20042;SDS011;10182;52.896;6.496;2022-12-07T13:54:49;3.23;;;1.10;;
20042;SDS011;10182;52.896;6.496;2022-12-07T13:59:59;4.50;;;1.93;;
20042;SDS011;10182;52.896;6.496;2022-12-07T14:05:09;5.17;;;1.47;;
20042;SDS011;10182;52.896;6.496;2022-12-07T14:10:25;4.27;;;1.70;;
20042;SDS011;10182;52.896;6.496;2022-12-07T14:15:30;4.67;;;1.10;;
20042;SDS011;10182;52.896;6.496;2022-12-07T14:20:35;3.07;;;1.07;;
20042;SDS011;10182;52.896;6.496;2022-12-07T14:25:45;2.63;;;0.73;;
20042;SDS011;10182;52.896;6.496;2022-12-07T14:30:49;7.83;;;1.10;;
20042;SDS011;10182;52.896;6.496;2022-12-07T14:35:51;3.30;;;0.70;;
20042;SDS011;10182;52.896;6.496;2022-12-07T14:40:55;6.30;;;2.23;;
20042;SDS011;10182;52.896;6.496;2022-12-07T14:46:20;4.30;;;1.63;;
20042;SDS011;10182;52.896;6.496;2022-12-07T14:51:22;6.07;;;1.53;;
20042;SDS011;10182;52.896;6.496;2022-12-07T14:56:23;5.43;;;1.00;;
20042;SDS011;10182;52.896;6.496;2022-12-07T15:01:26;3.23;;;1.23;;
20042;SDS011;10182;52.896;6.496;2022-12-07T15:06:28;4.70;;;1.20;;
20042;SDS011;10182;52.896;6.496;2022-12-07T15:11:30;4.90;;;1.47;;
20042;SDS011;10182;52.896;6.496;2022-12-07T15:16:33;2.13;;;1.03;;
20042;SDS011;10182;52.896;6.496;2022-12-07T15:21:35;3.03;;;1.43;;
20042;SDS011;10182;52.896;6.496;2022-12-07T15:26:37;9.23;;;1.70;;
20042;SDS011;10182;52.896;6.496;2022-12-07T15:31:40;5.30;;;1.30;;
20042;SDS011;10182;52.896;6.496;2022-12-07T15:36:42;15.37;;;2.93;;
20042;SDS011;10182;52.896;6.496;2022-12-07T15:41:43;13.10;;;2.37;;
20042;SDS011;10182;52.896;6.496;2022-12-07T15:46:48;6.47;;;2.10;;
20042;SDS011;10182;52.896;6.496;2022-12-07T15:51:49;9.73;;;4.33;;
20042;SDS011;10182;52.896;6.496;2022-12-07T15:56:51;7.47;;;2.00;;
20042;SDS011;10182;52.896;6.496;2022-12-07T16:01:54;3.73;;;1.10;;
20042;SDS011;10182;52.896;6.496;2022-12-07T16:06:57;3.30;;;1.23;;
20042;SDS011;10182;52.896;6.496;2022-12-07T16:11:59;5.70;;;1.80;;
20042;SDS011;10182;52.896;6.496;2022-12-07T16:17:02;3.40;;;1.00;;
20042;SDS011;10182;52.896;6.496;2022-12-07T16:22:04;6.20;;;1.67;;
20042;SDS011;10182;52.896;6.496;2022-12-07T16:27:06;4.07;;;1.67;;
20042;SDS011;10182;52.896;6.496;2022-12-07T16:32:09;4.53;;;1.30;;
20042;SDS011;10182;52.896;6.496;2022-12-07T16:37:11;3.07;;;1.07;;
20042;SDS011;10182;52.896;6.496;2022-12-07T16:42:14;1.93;;;0.70;;
20042;SDS011;10182;52.896;6.496;2022-12-07T16:47:17;2.60;;;1.23;;
20042;SDS011;10182;52.896;6.496;2022-12-07T16:52:19;5.50;;;1.20;;
20042;SDS011;10182;52.896;6.496;2022-12-07T16:57:21;15.57;;;9.23;;
20042;SDS011;10182;52.896;6.496;2022-12-07T17:02:24;15.40;;;7.50;;
20042;SDS011;10182;52.896;6.496;2022-12-07T17:07:26;6.40;;;4.20;;
20042;SDS011;10182;52.896;6.496;2022-12-07T17:12:27;5.03;;;3.83;;
20042;SDS011;10182;52.896;6.496;2022-12-07T17:17:30;8.03;;;5.30;;
20042;SDS011;10182;52.896;6.496;2022-12-07T17:22:32;9.07;;;5.37;;
20042;SDS011;10182;52.896;6.496;2022-12-07T17:27:34;7.30;;;4.47;;
20042;SDS011;10182;52.896;6.496;2022-12-07T17:32:37;9.40;;;5.20;;
20042;SDS011;10182;52.896;6.496;2022-12-07T17:37:39;6.60;;;4.13;;
20042;SDS011;10182;52.896;6.496;2022-12-07T17:42:40;8.50;;;4.60;;
20042;SDS011;10182;52.896;6.496;2022-12-07T17:47:48;6.50;;;2.63;;
20042;SDS011;10182;52.896;6.496;2022-12-07T17:52:50;9.57;;;4.63;;
20042;SDS011;10182;52.896;6.496;2022-12-07T17:58:09;7.87;;;4.80;;
20042;SDS011;10182;52.896;6.496;2022-12-07T18:03:12;7.87;;;5.50;;
20042;SDS011;10182;52.896;6.496;2022-12-07T18:08:14;11.47;;;6.67;;
20042;SDS011;10182;52.896;6.496;2022-12-07T18:13:15;15.53;;;8.97;;
20042;SDS011;10182;52.896;6.496;2022-12-07T18:18:45;8.37;;;6.60;;
20042;SDS011;10182;52.896;6.496;2022-12-07T18:23:48;11.83;;;9.37;;
20042;SDS011;10182;52.896;6.496;2022-12-07T18:28:50;12.80;;;8.40;;
20042;SDS011;10182;52.896;6.496;2022-12-07T18:33:54;7.70;;;4.93;;
20042;SDS011;10182;52.896;6.496;2022-12-07T18:38:56;6.37;;;4.03;;
20042;SDS011;10182;52.896;6.496;2022-12-07T18:43:57;6.27;;;4.33;;
20042;SDS011;10182;52.896;6.496;2022-12-07T18:49:01;6.60;;;4.53;;
20042;SDS011;10182;52.896;6.496;2022-12-07T18:54:04;13.97;;;9.87;;
20042;SDS011;10182;52.896;6.496;2022-12-07T18:59:06;10.10;;;7.13;;
20042;SDS011;10182;52.896;6.496;2022-12-07T19:04:27;14.57;;;8.43;;
20042;SDS011;10182;52.896;6.496;2022-12-07T19:09:29;9.97;;;6.17;;
20042;SDS011;10182;52.896;6.496;2022-12-07T19:14:31;6.97;;;5.23;;
20042;SDS011;10182;52.896;6.496;2022-12-07T19:19:36;9.27;;;4.87;;
20042;SDS011;10182;52.896;6.496;2022-12-07T19:24:39;8.03;;;6.10;;
20042;SDS011;10182;52.896;6.496;2022-12-07T19:29:41;9.50;;;6.63;;
20042;SDS011;10182;52.896;6.496;2022-12-07T19:34:44;8.07;;;6.60;;
20042;SDS011;10182;52.896;6.496;2022-12-07T19:39:47;9.63;;;5.17;;
20042;SDS011;10182;52.896;6.496;2022-12-07T19:44:53;12.20;;;5.60;;
20042;SDS011;10182;52.896;6.496;2022-12-07T19:49:56;11.27;;;6.00;;
20042;SDS011;10182;52.896;6.496;2022-12-07T19:54:58;13.57;;;7.27;;
20042;SDS011;10182;52.896;6.496;2022-12-07T20:00:00;6.53;;;5.13;;
20042;SDS011;10182;52.896;6.496;2022-12-07T20:05:03;9.50;;;5.17;;
20042;SDS011;10182;52.896;6.496;2022-12-07T20:10:06;9.07;;;4.43;;
20042;SDS011;10182;52.896;6.496;2022-12-07T20:15:09;6.67;;;5.07;;
20042;SDS011;10182;52.896;6.496;2022-12-07T20:20:12;8.13;;;4.97;;
20042;SDS011;10182;52.896;6.496;2022-12-07T20:25:14;6.47;;;5.00;;
20042;SDS011;10182;52.896;6.496;2022-12-07T20:30:19;6.53;;;3.83;;
20042;SDS011;10182;52.896;6.496;2022-12-07T20:35:22;7.67;;;5.03;;
20042;SDS011;10182;52.896;6.496;2022-12-07T20:40:23;12.50;;;8.07;;
20042;SDS011;10182;52.896;6.496;2022-12-07T20:45:25;11.33;;;4.43;;
20042;SDS011;10182;52.896;6.496;2022-12-07T20:50:28;5.23;;;3.90;;
20042;SDS011;10182;52.896;6.496;2022-12-07T20:55:30;12.50;;;4.30;;
20042;SDS011;10182;52.896;6.496;2022-12-07T21:00:33;8.00;;;4.57;;
20042;SDS011;10182;52.896;6.496;2022-12-07T21:05:36;9.90;;;3.57;;
20042;SDS011;10182;52.896;6.496;2022-12-07T21:10:38;9.33;;;4.10;;
20042;SDS011;10182;52.896;6.496;2022-12-07T21:15:40;8.23;;;4.57;;
20042;SDS011;10182;52.896;6.496;2022-12-07T21:20:43;5.93;;;3.50;;
20042;SDS011;10182;52.896;6.496;2022-12-07T21:25:44;6.67;;;4.03;;
20042;SDS011;10182;52.896;6.496;2022-12-07T21:30:46;11.17;;;3.70;;
20042;SDS011;10182;52.896;6.496;2022-12-07T21:35:49;9.03;;;3.83;;
20042;SDS011;10182;52.896;6.496;2022-12-07T21:40:51;9.70;;;3.70;;
20042;SDS011;10182;52.896;6.496;2022-12-07T21:45:53;7.43;;;3.80;;
20042;SDS011;10182;52.896;6.496;2022-12-07T21:50:56;6.67;;;3.53;;
20042;SDS011;10182;52.896;6.496;2022-12-07T21:56:07;6.20;;;3.00;;
20042;SDS011;10182;52.896;6.496;2022-12-07T22:01:14;3.90;;;2.37;;
20042;SDS011;10182;52.896;6.496;2022-12-07T22:06:19;12.17;;;2.37;;
20042;SDS011;10182;52.896;6.496;2022-12-07T22:11:22;4.90;;;1.93;;
20042;SDS011;10182;52.896;6.496;2022-12-07T22:16:24;5.13;;;1.73;;
20042;SDS011;10182;52.896;6.496;2022-12-07T22:21:28;5.93;;;1.50;;
20042;SDS011;10182;52.896;6.496;2022-12-07T22:26:30;6.30;;;1.67;;
20042;SDS011;10182;52.896;6.496;2022-12-07T22:31:32;5.30;;;1.30;;
20042;SDS011;10182;52.896;6.496;2022-12-07T22:36:35;2.40;;;1.20;;
20042;SDS011;10182;52.896;6.496;2022-12-07T22:41:36;6.00;;;1.20;;
20042;SDS011;10182;52.896;6.496;2022-12-07T22:46:38;3.00;;;1.60;;
20042;SDS011;10182;52.896;6.496;2022-12-07T22:51:41;2.43;;;1.40;;
20042;SDS011;10182;52.896;6.496;2022-12-07T22:56:44;3.87;;;1.10;;
20042;SDS011;10182;52.896;6.496;2022-12-07T23:01:45;2.50;;;1.20;;
20042;SDS011;10182;52.896;6.496;2022-12-07T23:06:48;1.67;;;0.90;;
20042;SDS011;10182;52.896;6.496;2022-12-07T23:11:50;3.87;;;1.40;;
20042;SDS011;10182;52.896;6.496;2022-12-07T23:17:09;4.63;;;1.50;;
20042;SDS011;10182;52.896;6.496;2022-12-07T23:22:12;2.80;;;0.80;;
20042;SDS011;10182;52.896;6.496;2022-12-07T23:27:14;4.27;;;1.23;;
20042;SDS011;10182;52.896;6.496;2022-12-07T23:32:15;4.47;;;1.50;;
20042;SDS011;10182;52.896;6.496;2022-12-07T23:37:18;4.80;;;1.70;;
20042;SDS011;10182;52.896;6.496;2022-12-07T23:42:20;4.33;;;1.40;;
20042;SDS011;10182;52.896;6.496;2022-12-07T23:47:22;3.67;;;1.40;;
20042;SDS011;10182;52.896;6.496;2022-12-07T23:52:25;5.30;;;1.77;;
20042;SDS011;10182;52.896;6.496;2022-12-07T23:57:26;3.80;;;1.47;;
